createdAt,value
2019-03-12T00:00:48.345Z,2.89
2019-03-12T00:01:48.304Z,2.99
2019-03-12T00:02:48.321Z,2.85
2019-03-12T00:03:48.273Z,2.87
2019-03-12T00:04:48.261Z,2.85
2019-03-12T00:05:48.250Z,2.96
2019-03-12T00:06:48.249Z,2.99
2019-03-12T00:07:48.286Z,3.10
2019-03-12T00:08:48.218Z,2.95
2019-03-12T00:09:48.206Z,2.96
2019-03-12T00:10:48.195Z,2.93
2019-03-12T00:11:48.189Z,2.90
2019-03-12T00:12:48.180Z,2.96
2019-03-12T00:13:48.206Z,2.92
2019-03-12T00:14:48.199Z,2.99
2019-03-12T00:15:48.150Z,2.84
2019-03-12T00:16:48.140Z,2.87
2019-03-12T00:17:48.124Z,2.81
2019-03-12T00:18:48.108Z,2.89
2019-03-12T00:19:48.141Z,2.95
2019-03-12T00:20:48.132Z,2.92
2019-03-12T00:21:48.080Z,2.93
2019-03-12T00:22:48.065Z,2.89
2019-03-12T00:23:48.112Z,2.95
2019-03-12T00:24:48.062Z,3.00
2019-03-12T00:25:48.073Z,2.99
2019-03-12T00:26:48.027Z,2.97
2019-03-12T00:27:48.017Z,2.97
2019-03-12T00:28:48.043Z,2.96
2019-03-12T00:29:47.996Z,3.06
2019-03-12T00:30:47.990Z,2.99
2019-03-12T00:31:48.018Z,2.96
2019-03-12T00:32:47.964Z,2.92
2019-03-12T00:33:47.956Z,2.89
2019-03-12T00:34:47.939Z,2.90
2019-03-12T00:35:47.968Z,2.96
2019-03-12T00:36:47.917Z,2.82
2019-03-12T00:37:47.906Z,2.87
2019-03-12T00:38:47.903Z,2.87
2019-03-12T00:39:47.917Z,2.75
2019-03-12T00:40:47.869Z,2.78
2019-03-12T00:41:47.864Z,2.92
2019-03-12T00:42:47.896Z,2.81
2019-03-12T00:43:47.839Z,2.74
2019-03-12T00:44:47.827Z,2.64
2019-03-12T00:45:47.815Z,2.75
2019-03-12T00:46:47.807Z,2.74
2019-03-12T00:47:47.832Z,2.75
2019-03-12T00:48:47.792Z,2.71
2019-03-12T00:49:47.817Z,2.75
2019-03-12T00:50:47.805Z,2.75
2019-03-12T00:51:47.756Z,2.79
2019-03-12T00:52:47.744Z,2.78
2019-03-12T00:53:47.727Z,2.74
2019-03-12T00:54:47.725Z,2.69
2019-03-12T00:55:47.760Z,2.79
2019-03-12T00:56:47.702Z,2.82
2019-03-12T00:57:47.684Z,2.77
2019-03-12T00:58:47.678Z,2.78
2019-03-12T00:59:47.668Z,2.82
2019-03-12T01:00:47.657Z,2.77
2019-03-12T01:01:47.689Z,2.77
2019-03-12T01:02:47.634Z,2.69
2019-03-12T01:03:47.672Z,2.71
2019-03-12T01:04:47.661Z,2.67
2019-03-12T01:05:47.625Z,2.63
2019-03-12T01:06:47.587Z,2.71
2019-03-12T01:07:47.583Z,2.67
2019-03-12T01:08:47.621Z,2.66
2019-03-12T01:09:47.552Z,2.72
2019-03-12T01:10:47.542Z,2.67
2019-03-12T01:11:47.536Z,2.71
2019-03-12T01:12:47.528Z,2.77
2019-03-12T01:13:47.520Z,2.77
2019-03-12T01:14:47.539Z,2.61
2019-03-12T01:15:47.540Z,2.69
2019-03-12T01:16:47.520Z,2.57
2019-03-12T01:17:47.473Z,2.74
2019-03-12T01:18:47.458Z,2.75
2019-03-12T01:19:47.449Z,2.71
2019-03-12T01:20:47.432Z,2.69
2019-03-12T01:21:47.475Z,2.63
2019-03-12T01:22:47.477Z,2.57
2019-03-12T01:23:47.400Z,2.67
2019-03-12T01:24:47.399Z,2.72
2019-03-12T01:25:47.482Z,2.64
2019-03-12T01:26:47.378Z,2.61
2019-03-12T01:27:47.361Z,2.60
2019-03-12T01:28:47.353Z,2.64
2019-03-12T01:29:47.339Z,2.67
2019-03-12T01:30:47.373Z,2.64
2019-03-12T01:31:47.317Z,2.74
2019-03-12T01:32:47.308Z,2.64
2019-03-12T01:33:47.307Z,2.64
2019-03-12T01:34:47.342Z,2.66
2019-03-12T01:35:47.331Z,2.67
2019-03-12T01:36:47.264Z,2.72
2019-03-12T01:37:47.260Z,2.77
2019-03-12T01:38:47.236Z,2.72
2019-03-12T01:39:47.228Z,2.78
2019-03-12T01:40:47.230Z,2.77
2019-03-12T01:41:47.259Z,2.77
2019-03-12T01:42:47.199Z,2.87
2019-03-12T01:43:47.190Z,2.81
2019-03-12T01:44:47.182Z,2.81
2019-03-12T01:45:47.165Z,2.84
2019-03-12T01:46:47.177Z,2.93
2019-03-12T01:47:47.189Z,2.89
2019-03-12T01:48:47.159Z,2.78
2019-03-12T01:49:47.126Z,2.89
2019-03-12T01:50:47.111Z,2.84
2019-03-12T01:51:47.100Z,2.85
2019-03-12T01:52:47.134Z,2.95
2019-03-12T01:53:47.079Z,3.03
2019-03-12T01:54:47.112Z,2.92
2019-03-12T01:55:47.051Z,2.96
2019-03-12T01:56:47.050Z,2.95
2019-03-12T01:57:47.035Z,2.95
2019-03-12T01:58:47.062Z,2.97
2019-03-12T01:59:47.009Z,2.87
2019-03-12T02:00:46.999Z,2.89
2019-03-12T02:01:46.991Z,2.93
2019-03-12T02:02:46.981Z,3.06
2019-03-12T02:03:47.058Z,2.99
2019-03-12T02:04:46.959Z,3.02
2019-03-12T02:05:46.946Z,3.13
2019-03-12T02:06:46.934Z,3.02
2019-03-12T02:07:46.939Z,3.11
2019-03-12T02:08:46.917Z,3.13
2019-03-12T02:09:46.937Z,3.05
2019-03-12T02:10:46.892Z,3.06
2019-03-12T02:11:46.877Z,3.14
2019-03-12T02:12:46.877Z,3.10
2019-03-12T02:13:46.870Z,3.05
2019-03-12T02:14:46.876Z,3.14
2019-03-12T02:15:46.872Z,3.15
2019-03-12T02:16:46.829Z,3.13
2019-03-12T02:17:46.917Z,3.23
2019-03-12T02:18:46.817Z,3.18
2019-03-12T02:19:46.790Z,3.15
2019-03-12T02:20:46.838Z,3.15
2019-03-12T02:21:46.776Z,3.18
2019-03-12T02:22:46.761Z,3.20
2019-03-12T02:23:46.746Z,3.14
2019-03-12T02:24:52.557Z,3.05
2019-03-12T02:25:47.795Z,3.17
2019-03-12T02:26:46.723Z,3.14
2019-03-12T02:27:46.707Z,3.15
2019-03-12T02:28:46.699Z,3.14
2019-03-12T02:29:46.689Z,3.17
2019-03-12T02:30:46.703Z,3.21
2019-03-12T02:31:46.729Z,3.20
2019-03-12T02:32:46.655Z,3.21
2019-03-12T02:33:46.642Z,3.26
2019-03-12T02:34:46.637Z,3.28
2019-03-12T02:35:46.617Z,3.21
2019-03-12T02:36:46.614Z,3.32
2019-03-12T02:37:46.636Z,3.21
2019-03-12T02:38:46.582Z,3.29
2019-03-12T02:39:46.597Z,3.33
2019-03-12T02:40:46.566Z,3.28
2019-03-12T02:41:46.556Z,3.33
2019-03-12T02:42:46.584Z,3.33
2019-03-12T02:43:46.526Z,3.36
2019-03-12T02:44:46.570Z,3.33
2019-03-12T02:45:46.553Z,3.33
2019-03-12T02:46:46.499Z,3.43
2019-03-12T02:47:46.523Z,3.50
2019-03-12T02:48:46.486Z,3.42
2019-03-12T02:49:46.471Z,3.43
2019-03-12T02:50:46.454Z,3.52
2019-03-12T02:51:46.445Z,3.47
2019-03-12T02:52:46.473Z,3.35
2019-03-12T02:53:46.424Z,3.43
2019-03-12T02:54:46.419Z,3.39
2019-03-12T02:55:46.397Z,3.40
2019-03-12T02:56:46.382Z,3.31
2019-03-12T02:57:46.441Z,3.42
2019-03-12T02:58:46.362Z,3.39
2019-03-12T02:59:46.357Z,3.36
2019-03-12T03:00:46.338Z,3.36
2019-03-12T03:01:46.347Z,3.48
2019-03-12T03:02:46.365Z,3.60
2019-03-12T03:03:46.353Z,3.47
2019-03-12T03:04:46.301Z,3.55
2019-03-12T03:05:46.287Z,3.50
2019-03-12T03:06:46.297Z,3.58
2019-03-12T03:07:46.265Z,3.47
2019-03-12T03:08:46.311Z,3.58
2019-03-12T03:09:46.243Z,3.50
2019-03-12T03:10:46.226Z,3.55
2019-03-12T03:11:46.284Z,3.58
2019-03-12T03:12:46.215Z,3.61
2019-03-12T03:13:46.205Z,3.57
2019-03-12T03:14:46.235Z,3.55
2019-03-12T03:15:46.174Z,3.57
2019-03-12T03:16:46.208Z,3.57
2019-03-12T03:17:46.161Z,3.58
2019-03-12T03:18:46.139Z,3.61
2019-03-12T03:19:46.131Z,3.58
2019-03-12T03:20:46.122Z,3.55
2019-03-12T03:21:46.105Z,3.66
2019-03-12T03:22:46.146Z,3.65
2019-03-12T03:23:46.086Z,3.65
2019-03-12T03:24:46.082Z,3.57
2019-03-12T03:25:46.074Z,3.55
2019-03-12T03:26:46.057Z,3.58
2019-03-12T03:27:46.086Z,3.65
2019-03-12T03:28:46.029Z,3.70
2019-03-12T03:29:46.027Z,3.60
2019-03-12T03:30:46.022Z,3.55
2019-03-12T03:31:46.006Z,3.61
2019-03-12T03:32:46.069Z,3.65
2019-03-12T03:33:45.999Z,3.55
2019-03-12T03:34:45.998Z,3.58
2019-03-12T03:35:46.000Z,3.55
2019-03-12T03:36:45.946Z,3.61
2019-03-12T03:37:45.940Z,3.60
2019-03-12T03:38:45.924Z,3.55
2019-03-12T03:39:45.908Z,3.55
2019-03-12T03:40:45.899Z,3.51
2019-03-12T03:41:45.927Z,3.58
2019-03-12T03:42:45.910Z,3.61
2019-03-12T03:43:45.901Z,3.51
2019-03-12T03:44:45.849Z,3.60
2019-03-12T03:45:45.838Z,3.58
2019-03-12T03:46:45.864Z,3.55
2019-03-12T03:47:45.816Z,3.69
2019-03-12T03:48:45.866Z,3.72
2019-03-12T03:49:45.798Z,3.69
2019-03-12T03:50:45.789Z,3.57
2019-03-12T03:51:45.827Z,3.60
2019-03-12T03:52:45.905Z,3.62
2019-03-12T03:53:45.755Z,3.50
2019-03-12T03:54:45.746Z,3.62
2019-03-12T03:55:45.726Z,3.60
2019-03-12T03:56:45.769Z,3.52
2019-03-12T03:57:45.752Z,3.65
2019-03-12T03:58:45.695Z,3.62
2019-03-12T03:59:45.684Z,3.66
2019-03-12T04:00:45.673Z,3.65
2019-03-12T04:01:45.695Z,3.68
2019-03-12T04:02:45.724Z,3.66
2019-03-12T04:03:45.646Z,3.68
2019-03-12T04:04:45.626Z,3.68
2019-03-12T04:05:45.615Z,3.73
2019-03-12T04:06:45.618Z,3.73
2019-03-12T04:07:45.591Z,3.76
2019-03-12T04:08:45.633Z,3.70
2019-03-12T04:09:45.568Z,3.72
2019-03-12T04:10:45.593Z,3.76
2019-03-12T04:11:45.552Z,3.69
2019-03-12T04:12:45.549Z,3.75
2019-03-12T04:13:45.529Z,3.69
2019-03-12T04:14:45.577Z,3.80
2019-03-12T04:15:45.511Z,3.87
2019-03-12T04:16:45.504Z,3.80
2019-03-12T04:17:45.485Z,3.78
2019-03-12T04:18:45.474Z,3.78
2019-03-12T04:19:45.462Z,3.72
2019-03-12T04:20:45.489Z,3.90
2019-03-12T04:21:45.442Z,3.79
2019-03-12T04:22:45.435Z,3.80
2019-03-12T04:23:45.466Z,3.76
2019-03-12T04:24:45.405Z,3.73
2019-03-12T04:25:45.397Z,3.73
2019-03-12T04:26:45.410Z,3.75
2019-03-12T04:27:45.378Z,3.72
2019-03-12T04:28:45.413Z,3.73
2019-03-12T04:29:45.353Z,3.78
2019-03-12T04:30:45.397Z,3.73
2019-03-12T04:31:45.337Z,3.69
2019-03-12T04:32:45.325Z,3.69
2019-03-12T04:33:45.299Z,3.69
2019-03-12T04:34:45.288Z,3.73
2019-03-12T04:35:45.287Z,3.73
2019-03-12T04:36:45.316Z,3.73
2019-03-12T04:37:45.270Z,3.75
2019-03-12T04:38:45.249Z,3.72
2019-03-12T04:39:45.242Z,3.70
2019-03-12T04:40:45.229Z,3.70
2019-03-12T04:41:45.269Z,3.72
2019-03-12T04:42:45.213Z,3.78
2019-03-12T04:43:45.194Z,3.79
2019-03-12T04:44:45.177Z,3.83
2019-03-12T04:45:45.167Z,3.80
2019-03-12T04:46:45.197Z,3.76
2019-03-12T04:47:45.149Z,3.80
2019-03-12T04:48:45.179Z,3.69
2019-03-12T04:49:45.125Z,3.72
2019-03-12T04:50:45.108Z,3.70
2019-03-12T04:51:45.146Z,3.73
2019-03-12T04:52:45.095Z,3.58
2019-03-12T04:53:45.088Z,3.65
2019-03-12T04:54:45.066Z,3.73
2019-03-12T04:55:45.055Z,3.75
2019-03-12T04:56:45.097Z,3.66
2019-03-12T04:57:45.036Z,3.60
2019-03-12T04:58:45.032Z,3.75
2019-03-12T04:59:45.015Z,3.70
2019-03-12T05:00:45.018Z,3.76
2019-03-12T05:01:44.996Z,3.70
2019-03-12T05:02:45.034Z,3.69
2019-03-12T05:03:44.969Z,3.62
2019-03-12T05:04:44.988Z,3.69
2019-03-12T05:05:44.986Z,3.69
2019-03-12T05:06:44.931Z,3.69
2019-03-12T05:07:44.934Z,3.66
2019-03-12T05:08:44.992Z,3.66
2019-03-12T05:09:44.919Z,3.72
2019-03-12T05:10:44.890Z,3.57
2019-03-12T05:11:44.887Z,3.58
2019-03-12T05:12:44.871Z,3.66
2019-03-12T05:13:44.895Z,3.55
2019-03-12T05:14:44.902Z,3.51
2019-03-12T05:15:44.839Z,3.58
2019-03-12T05:16:44.826Z,3.55
2019-03-12T05:17:44.810Z,3.54
2019-03-12T05:18:44.810Z,3.51
2019-03-12T05:19:44.792Z,3.55
2019-03-12T05:20:44.820Z,3.54
2019-03-12T05:21:45.081Z,3.60
2019-03-12T05:22:44.751Z,3.65
2019-03-12T05:23:44.746Z,3.58
2019-03-12T05:24:44.789Z,3.60
2019-03-12T05:25:44.723Z,3.54
2019-03-12T05:26:44.708Z,3.75
2019-03-12T05:27:44.726Z,3.65
2019-03-12T05:28:44.698Z,3.69
2019-03-12T05:29:44.680Z,3.60
2019-03-12T05:30:44.706Z,3.58
2019-03-12T05:31:44.652Z,3.62
2019-03-12T05:32:44.649Z,3.65
2019-03-12T05:33:44.630Z,3.60
2019-03-12T05:34:44.660Z,3.60
2019-03-12T05:35:44.647Z,3.60
2019-03-12T05:36:44.604Z,3.57
2019-03-12T05:37:44.584Z,3.52
2019-03-12T05:38:44.577Z,3.58
2019-03-12T05:39:44.580Z,3.50
2019-03-12T05:40:44.602Z,3.52
2019-03-12T05:41:44.552Z,3.50
2019-03-12T05:42:44.536Z,3.48
2019-03-12T05:43:44.529Z,3.54
2019-03-12T05:44:44.506Z,3.58
2019-03-12T05:45:44.545Z,3.52
2019-03-12T05:46:44.484Z,3.58
2019-03-12T05:47:44.478Z,3.54
2019-03-12T05:48:44.470Z,3.47
2019-03-12T05:49:44.453Z,3.48
2019-03-12T05:50:44.457Z,3.50
2019-03-12T05:51:44.467Z,3.55
2019-03-12T05:52:44.429Z,3.52
2019-03-12T05:53:44.419Z,3.60
2019-03-12T05:54:44.399Z,3.60
2019-03-12T05:55:44.391Z,3.57
2019-03-12T05:56:44.434Z,3.55
2019-03-12T05:57:44.362Z,3.51
2019-03-12T05:58:44.349Z,3.48
2019-03-12T05:59:44.348Z,3.58
2019-03-12T06:00:44.337Z,3.48
2019-03-12T06:01:46.643Z,3.55
2019-03-12T06:02:44.347Z,3.52
2019-03-12T06:03:44.300Z,3.51
2019-03-12T06:04:44.288Z,3.57
2019-03-12T06:05:44.321Z,3.55
2019-03-12T06:06:44.286Z,3.68
2019-03-12T06:07:44.298Z,3.55
2019-03-12T06:08:44.268Z,3.62
2019-03-12T06:09:44.286Z,3.55
2019-03-12T06:10:44.216Z,3.61
2019-03-12T06:11:44.211Z,3.66
2019-03-12T06:12:44.199Z,3.65
2019-03-12T06:13:44.185Z,3.70
2019-03-12T06:14:44.177Z,3.69
2019-03-12T06:15:44.209Z,3.58
2019-03-12T06:16:44.157Z,3.60
2019-03-12T06:17:44.161Z,3.62
2019-03-12T06:18:44.126Z,3.68
2019-03-12T06:19:44.172Z,3.65
2019-03-12T06:20:44.105Z,3.62
2019-03-12T06:21:44.099Z,3.57
2019-03-12T06:22:44.086Z,3.54
2019-03-12T06:23:44.079Z,3.51
2019-03-12T06:24:44.076Z,3.55
2019-03-12T06:25:44.116Z,3.61
2019-03-12T06:26:44.046Z,3.52
2019-03-12T06:27:44.029Z,3.55
2019-03-12T06:28:44.021Z,3.55
2019-03-12T06:29:44.044Z,3.54
2019-03-12T06:30:44.001Z,3.55
2019-03-12T06:31:43.995Z,3.68
2019-03-12T06:32:43.997Z,3.65
2019-03-12T06:33:43.966Z,3.68
2019-03-12T06:34:43.989Z,3.58
2019-03-12T06:35:43.944Z,3.57
2019-03-12T06:36:43.935Z,3.61
2019-03-12T06:37:43.914Z,3.68
2019-03-12T06:38:43.913Z,3.75
2019-03-12T06:39:43.950Z,3.66
2019-03-12T06:40:43.928Z,3.70
2019-03-12T06:41:43.878Z,3.70
2019-03-12T06:42:43.871Z,3.79
2019-03-12T06:43:43.888Z,3.73
2019-03-12T06:44:43.847Z,3.72
2019-03-12T06:45:43.877Z,3.72
2019-03-12T06:46:43.816Z,3.69
2019-03-12T06:47:46.445Z,3.70
2019-03-12T06:48:43.852Z,3.72
2019-03-12T06:49:43.791Z,3.68
2019-03-12T06:50:43.780Z,3.72
2019-03-12T06:51:43.765Z,3.69
2019-03-12T06:52:43.754Z,3.61
2019-03-12T06:53:43.742Z,3.70
2019-03-12T06:54:43.771Z,3.75
2019-03-12T06:55:43.717Z,3.91
2019-03-12T06:56:43.710Z,3.90
2019-03-12T06:57:43.716Z,3.88
2019-03-12T06:58:43.697Z,3.94
2019-03-12T06:59:43.710Z,3.91
2019-03-12T07:00:43.670Z,4.06
2019-03-12T07:01:43.662Z,4.09
2019-03-12T07:02:43.702Z,4.14
2019-03-12T07:03:43.632Z,4.22
2019-03-12T07:04:43.638Z,4.04
2019-03-12T07:05:43.608Z,4.09
2019-03-12T07:06:43.596Z,4.14
2019-03-12T07:07:45.921Z,4.15
2019-03-12T07:08:43.621Z,4.22
2019-03-12T07:09:43.582Z,4.15
2019-03-12T07:10:43.557Z,4.15
2019-03-12T07:11:43.578Z,4.22
2019-03-12T07:12:43.543Z,4.11
2019-03-12T07:13:43.528Z,4.23
2019-03-12T07:14:43.511Z,4.24
2019-03-12T07:15:43.540Z,4.14
2019-03-12T07:16:43.495Z,4.26
2019-03-12T07:17:45.638Z,4.11
2019-03-12T07:18:43.469Z,4.06
2019-03-12T07:19:43.505Z,4.04
2019-03-12T07:20:43.491Z,4.08
2019-03-12T07:21:43.437Z,4.04
2019-03-12T07:22:43.431Z,4.00
2019-03-12T07:23:43.414Z,4.08
2019-03-12T07:24:43.448Z,4.05
2019-03-12T07:25:43.390Z,4.04
2019-03-12T07:26:43.386Z,4.00
2019-03-12T07:27:43.376Z,4.05
2019-03-12T07:28:49.768Z,4.08
2019-03-12T07:29:44.398Z,4.09
2019-03-12T07:30:43.333Z,4.12
2019-03-12T07:31:43.325Z,4.12
2019-03-12T07:32:43.313Z,4.11
2019-03-12T07:33:43.304Z,4.15
2019-03-12T07:34:43.300Z,4.22
2019-03-12T07:35:43.335Z,4.18
2019-03-12T07:36:43.321Z,4.09
2019-03-12T07:37:43.265Z,4.11
2019-03-12T07:38:43.257Z,4.15
2019-03-12T07:39:43.242Z,4.32
2019-03-12T07:40:43.225Z,4.33
2019-03-12T07:41:43.222Z,4.16
2019-03-12T07:42:43.238Z,4.32
2019-03-12T07:43:43.310Z,4.29
2019-03-12T07:44:43.184Z,4.47
2019-03-12T07:45:43.175Z,4.52
2019-03-12T07:46:43.177Z,4.55
2019-03-12T07:47:43.214Z,4.67
2019-03-12T07:48:43.135Z,4.50
2019-03-12T07:49:43.126Z,4.52
2019-03-12T07:50:43.113Z,4.55
2019-03-12T07:51:43.131Z,4.55
2019-03-12T07:52:43.096Z,4.72
2019-03-12T07:53:43.144Z,4.69
2019-03-12T07:54:43.073Z,4.65
2019-03-12T07:55:43.064Z,4.67
2019-03-12T07:56:43.047Z,4.77
2019-03-12T07:57:43.040Z,4.75
2019-03-12T07:58:43.062Z,4.77
2019-03-12T07:59:43.021Z,4.70
2019-03-12T08:00:43.007Z,4.88
2019-03-12T08:01:42.995Z,4.75
2019-03-12T08:02:43.062Z,4.75
2019-03-12T08:03:42.984Z,4.92
2019-03-12T08:04:43.755Z,4.85
2019-03-12T08:05:42.951Z,5.07
2019-03-12T08:06:42.940Z,5.00
2019-03-12T08:07:42.928Z,5.02
2019-03-12T08:08:42.954Z,4.92
2019-03-12T08:09:42.906Z,4.86
2019-03-12T08:10:42.910Z,4.77
2019-03-12T08:11:42.886Z,4.77
2019-03-12T08:12:42.919Z,4.69
2019-03-12T08:13:42.865Z,4.73
2019-03-12T08:14:42.851Z,4.69
2019-03-12T08:15:42.839Z,4.69
2019-03-12T08:16:42.823Z,4.69
2019-03-12T08:17:42.815Z,4.80
2019-03-12T08:18:42.850Z,4.73
2019-03-12T08:19:42.789Z,4.77
2019-03-12T08:20:42.805Z,4.78
2019-03-12T08:21:42.768Z,4.75
2019-03-12T08:22:42.758Z,4.63
2019-03-12T08:23:42.790Z,4.72
2019-03-12T08:24:42.758Z,4.75
2019-03-12T08:25:44.032Z,4.80
2019-03-12T08:26:42.720Z,4.73
2019-03-12T08:27:42.707Z,4.73
2019-03-12T08:28:42.695Z,4.73
2019-03-12T08:29:42.722Z,4.77
2019-03-12T08:30:42.665Z,4.73
2019-03-12T08:31:42.659Z,4.80
2019-03-12T08:32:42.643Z,4.78
2019-03-12T08:33:50.359Z,4.84
2019-03-12T08:34:43.677Z,4.89
2019-03-12T08:35:42.628Z,4.85
2019-03-12T08:36:42.605Z,4.99
2019-03-12T08:37:42.598Z,5.00
2019-03-12T08:38:42.577Z,4.92
2019-03-12T08:39:42.566Z,4.92
2019-03-12T08:40:51.966Z,4.96
2019-03-12T08:41:43.545Z,4.88
2019-03-12T08:42:54.141Z,4.91
2019-03-12T08:43:43.520Z,5.02
2019-03-12T08:44:42.682Z,5.02
2019-03-12T08:45:45.427Z,4.96
2019-03-12T08:46:43.485Z,5.03
2019-03-12T08:47:42.505Z,5.00
2019-03-12T08:48:42.475Z,4.94
2019-03-12T08:49:42.457Z,4.99
2019-03-12T08:50:42.499Z,5.02
2019-03-12T08:51:42.429Z,5.04
2019-03-12T08:52:42.429Z,5.00
2019-03-12T08:53:42.414Z,4.97
2019-03-12T08:54:53.830Z,5.02
2019-03-12T08:55:43.383Z,5.07
2019-03-12T08:56:42.375Z,5.03
2019-03-12T08:57:42.363Z,5.06
2019-03-12T08:58:42.352Z,5.12
2019-03-12T08:59:42.348Z,5.02
2019-03-12T09:00:42.371Z,5.10
2019-03-12T09:01:44.081Z,5.12
2019-03-12T09:02:42.306Z,5.15
2019-03-12T09:03:42.300Z,5.15
2019-03-12T09:04:42.288Z,5.27
2019-03-12T09:05:42.298Z,5.31
2019-03-12T09:06:42.299Z,5.31
2019-03-12T09:07:42.255Z,5.30
2019-03-12T09:08:42.266Z,5.36
2019-03-12T09:09:42.235Z,5.45
2019-03-12T09:10:42.226Z,5.48
2019-03-12T09:11:42.250Z,5.49
2019-03-12T09:12:42.195Z,5.53
2019-03-12T09:13:42.185Z,5.61
2019-03-12T09:14:42.174Z,5.75
2019-03-12T09:15:42.170Z,5.82
2019-03-12T09:16:42.198Z,5.81
2019-03-12T09:17:42.143Z,5.82
2019-03-12T09:18:42.132Z,5.81
2019-03-12T09:19:42.128Z,5.71
2019-03-12T09:20:42.111Z,5.65
2019-03-12T09:21:42.140Z,5.71
2019-03-12T09:22:42.142Z,5.68
2019-03-12T09:23:42.087Z,5.72
2019-03-12T09:24:42.082Z,5.64
2019-03-12T09:25:42.062Z,5.61
2019-03-12T09:26:42.047Z,5.60
2019-03-12T09:27:42.076Z,5.71
2019-03-12T09:28:42.031Z,5.75
2019-03-12T09:29:42.019Z,5.75
2019-03-12T09:30:42.014Z,5.79
2019-03-12T09:31:41.999Z,5.81
2019-03-12T09:32:42.021Z,5.82
2019-03-12T09:33:41.972Z,5.85
2019-03-12T09:34:41.966Z,5.85
2019-03-12T09:35:41.956Z,5.91
2019-03-12T09:36:41.968Z,5.82
2019-03-12T09:37:41.987Z,5.89
2019-03-12T09:38:41.916Z,5.90
2019-03-12T09:39:41.907Z,5.94
2019-03-12T09:40:42.005Z,5.90
2019-03-12T09:41:41.880Z,6.06
2019-03-12T09:42:41.876Z,6.17
2019-03-12T09:43:41.894Z,6.15
2019-03-12T09:44:41.907Z,6.27
2019-03-12T09:45:41.884Z,6.34
2019-03-12T09:46:41.832Z,6.49
2019-03-12T09:47:41.810Z,6.56
2019-03-12T09:48:41.803Z,6.56
2019-03-12T09:49:41.834Z,6.64
2019-03-12T09:50:41.778Z,6.81
2019-03-12T09:51:41.831Z,6.88
2019-03-12T09:52:41.765Z,6.92
2019-03-12T09:53:41.750Z,6.81
2019-03-12T09:54:41.784Z,6.85
2019-03-12T09:55:41.751Z,6.79
2019-03-12T09:56:41.716Z,6.84
2019-03-12T09:57:41.710Z,6.84
2019-03-12T09:58:41.825Z,6.79
2019-03-12T09:59:41.906Z,6.80
2019-03-12T10:00:41.747Z,6.66
2019-03-12T10:01:41.668Z,6.69
2019-03-12T10:02:41.645Z,6.64
2019-03-12T10:03:41.644Z,6.80
2019-03-12T10:04:41.626Z,6.81
2019-03-12T10:05:41.674Z,6.85
2019-03-12T10:06:41.601Z,6.77
2019-03-12T10:07:41.592Z,6.69
2019-03-12T10:08:41.581Z,6.67
2019-03-12T10:09:41.573Z,6.62
2019-03-12T10:10:41.595Z,6.70
2019-03-12T10:11:41.547Z,6.76
2019-03-12T10:12:41.616Z,6.66
2019-03-12T10:13:41.528Z,6.66
2019-03-12T10:14:41.515Z,6.73
2019-03-12T10:15:41.583Z,6.66
2019-03-12T10:16:41.496Z,6.79
2019-03-12T10:17:41.480Z,6.77
2019-03-12T10:18:41.487Z,6.79
2019-03-12T10:19:41.466Z,6.84
2019-03-12T10:20:41.447Z,6.81
2019-03-12T10:21:41.482Z,6.81
2019-03-12T10:22:41.428Z,6.89
2019-03-12T10:23:41.417Z,7.03
2019-03-12T10:24:41.399Z,7.20
2019-03-12T10:25:41.389Z,7.30
2019-03-12T10:26:41.382Z,7.37
2019-03-12T10:27:41.415Z,7.39
2019-03-12T10:28:41.363Z,7.39
2019-03-12T10:29:41.345Z,7.40
2019-03-12T10:30:41.333Z,7.40
2019-03-12T10:31:41.362Z,7.42
2019-03-12T10:32:41.332Z,7.37
2019-03-12T10:33:41.302Z,7.28
2019-03-12T10:34:41.297Z,7.28
2019-03-12T10:35:41.283Z,7.21
2019-03-12T10:36:41.364Z,7.23
2019-03-12T10:37:41.261Z,7.28
2019-03-12T10:38:41.254Z,7.32
2019-03-12T10:39:41.256Z,7.37
2019-03-12T10:40:41.229Z,7.43
2019-03-12T10:41:41.224Z,7.45
2019-03-12T10:42:41.248Z,7.45
2019-03-12T10:43:41.196Z,7.48
2019-03-12T10:44:41.188Z,7.43
2019-03-12T10:45:41.174Z,7.48
2019-03-12T10:46:41.165Z,7.55
2019-03-12T10:47:41.206Z,7.35
2019-03-12T10:48:41.139Z,7.35
2019-03-12T10:49:41.122Z,7.37
2019-03-12T10:50:41.120Z,7.42
2019-03-12T10:51:41.108Z,7.57
2019-03-12T10:52:41.091Z,7.68
2019-03-12T10:53:41.118Z,7.67
2019-03-12T10:54:41.074Z,7.69
2019-03-12T10:55:41.062Z,7.79
2019-03-12T10:56:41.056Z,7.77
2019-03-12T10:57:41.043Z,7.82
2019-03-12T10:58:41.030Z,7.83
2019-03-12T10:59:41.052Z,7.86
2019-03-12T11:00:41.014Z,7.95
2019-03-12T11:01:41.002Z,7.95
2019-03-12T11:02:40.981Z,7.93
2019-03-12T11:03:41.011Z,7.79
2019-03-12T11:04:40.972Z,7.83
2019-03-12T11:05:45.842Z,7.83
2019-03-12T11:06:41.940Z,7.89
2019-03-12T11:07:40.924Z,7.92
2019-03-12T11:08:40.968Z,7.87
2019-03-12T11:09:40.949Z,7.95
2019-03-12T11:10:40.904Z,7.97
2019-03-12T11:11:40.882Z,8.02
2019-03-12T11:12:40.868Z,8.05
2019-03-12T11:13:40.863Z,8.11
2019-03-12T11:14:40.894Z,8.10
2019-03-12T11:15:40.840Z,8.16
2019-03-12T11:16:40.834Z,8.19
2019-03-12T11:17:49.425Z,8.28
2019-03-12T11:18:41.844Z,8.22
2019-03-12T11:19:40.789Z,8.33
2019-03-12T11:20:40.822Z,8.30
2019-03-12T11:21:40.788Z,8.23
2019-03-12T11:22:40.758Z,8.23
2019-03-12T11:23:40.751Z,8.16
2019-03-12T11:24:40.785Z,8.30
2019-03-12T11:25:40.721Z,8.28
2019-03-12T11:26:40.721Z,8.40
2019-03-12T11:27:40.709Z,8.47
2019-03-12T11:28:40.695Z,8.61
2019-03-12T11:29:40.677Z,8.73
2019-03-12T11:30:40.719Z,8.63
2019-03-12T11:31:40.656Z,8.62
2019-03-12T11:32:40.643Z,8.50
2019-03-12T11:33:40.650Z,8.48
2019-03-12T11:34:40.627Z,8.40
2019-03-12T11:35:40.677Z,8.44
2019-03-12T11:36:40.610Z,8.43
2019-03-12T11:37:40.678Z,8.43
2019-03-12T11:38:40.582Z,8.41
2019-03-12T11:39:40.920Z,8.56
2019-03-12T11:40:40.581Z,8.40
2019-03-12T11:41:40.599Z,8.37
2019-03-12T11:42:40.552Z,8.37
2019-03-12T11:43:40.528Z,8.33
2019-03-12T11:44:40.514Z,8.26
2019-03-12T11:45:40.542Z,8.26
2019-03-12T11:46:44.169Z,8.34
2019-03-12T11:47:40.511Z,8.40
2019-03-12T11:48:40.485Z,8.52
2019-03-12T11:49:40.459Z,8.63
2019-03-12T11:50:40.447Z,8.65
2019-03-12T11:51:40.476Z,8.81
2019-03-12T11:52:40.424Z,8.76
2019-03-12T11:53:40.452Z,8.94
2019-03-12T11:54:40.401Z,8.96
2019-03-12T11:55:40.427Z,9.05
2019-03-12T11:56:40.381Z,8.96
2019-03-12T11:57:40.414Z,9.11
2019-03-12T11:58:40.362Z,9.18
2019-03-12T11:59:40.344Z,9.23
2019-03-12T12:00:40.331Z,9.14
2019-03-12T12:01:40.355Z,9.14
2019-03-12T12:02:40.318Z,9.01
2019-03-12T12:03:40.342Z,8.95
2019-03-12T12:04:40.303Z,8.84
2019-03-12T12:05:40.282Z,8.81
2019-03-12T12:06:42.729Z,8.77
2019-03-12T12:07:40.254Z,8.77
2019-03-12T12:08:40.240Z,8.79
2019-03-12T12:09:40.313Z,8.86
2019-03-12T12:10:40.217Z,8.94
2019-03-12T12:11:40.205Z,8.95
2019-03-12T12:12:40.310Z,9.01
2019-03-12T12:13:40.195Z,9.05
2019-03-12T12:14:40.209Z,9.15
2019-03-12T12:15:40.204Z,9.13
2019-03-12T12:16:40.156Z,9.10
2019-03-12T12:17:40.141Z,9.04
2019-03-12T12:18:40.221Z,9.02
2019-03-12T12:19:40.126Z,8.99
2019-03-12T12:20:40.143Z,9.01
2019-03-12T12:21:40.109Z,9.01
2019-03-12T12:22:40.094Z,9.17
2019-03-12T12:23:40.083Z,9.24
2019-03-12T12:24:40.074Z,9.32
2019-03-12T12:25:40.103Z,9.38
2019-03-12T12:26:40.163Z,9.42
2019-03-12T12:27:40.031Z,9.64
2019-03-12T12:28:40.019Z,9.69
2019-03-12T12:29:40.015Z,9.79
2019-03-12T12:30:40.033Z,9.69
2019-03-12T12:31:40.003Z,9.78
2019-03-12T12:32:39.976Z,9.81
2019-03-12T12:33:39.972Z,9.83
2019-03-12T12:34:39.956Z,9.78
2019-03-12T12:35:39.989Z,9.79
2019-03-12T12:36:39.933Z,9.76
2019-03-12T12:37:39.925Z,9.74
2019-03-12T12:38:39.908Z,9.75
2019-03-12T12:39:39.903Z,9.74
2019-03-12T12:40:39.888Z,9.76
2019-03-12T12:41:39.924Z,9.74
2019-03-12T12:42:39.870Z,9.75
2019-03-12T12:43:39.854Z,9.64
2019-03-12T12:44:39.851Z,9.68
2019-03-12T12:45:39.860Z,9.68
2019-03-12T12:46:39.865Z,9.61
2019-03-12T12:47:39.833Z,9.66
2019-03-12T12:48:39.814Z,9.65
2019-03-12T12:49:39.812Z,9.78
2019-03-12T12:50:39.778Z,9.76
2019-03-12T12:51:39.812Z,9.76
2019-03-12T12:52:39.795Z,9.83
2019-03-12T12:53:39.746Z,9.94
2019-03-12T12:54:39.740Z,10.01
2019-03-12T12:55:39.728Z,9.99
2019-03-12T12:56:39.717Z,10.09
2019-03-12T12:57:39.783Z,9.93
2019-03-12T12:58:39.694Z,9.87
2019-03-12T12:59:39.688Z,9.72
2019-03-12T13:00:39.677Z,9.79
2019-03-12T13:01:39.665Z,9.86
2019-03-12T13:02:39.695Z,9.86
2019-03-12T13:03:39.695Z,9.90
2019-03-12T13:04:39.629Z,9.86
2019-03-12T13:05:39.615Z,9.76
2019-03-12T13:06:39.618Z,9.69
2019-03-12T13:07:39.592Z,9.68
2019-03-12T13:08:39.587Z,9.66
2019-03-12T13:09:39.630Z,9.68
2019-03-12T13:10:39.565Z,9.65
2019-03-12T13:11:39.553Z,9.58
2019-03-12T13:12:39.535Z,9.65
2019-03-12T13:13:39.567Z,9.61
2019-03-12T13:14:41.755Z,9.61
2019-03-12T13:15:39.505Z,9.64
2019-03-12T13:16:39.519Z,9.58
2019-03-12T13:17:39.511Z,9.58
2019-03-12T13:18:39.489Z,9.68